createdAt,value
2022-09-17T00:00:50.040Z,13.28
2022-09-17T00:03:17.228Z,13.23
2022-09-17T00:05:44.384Z,13.28
2022-09-17T00:08:14.922Z,13.26
2022-09-17T00:10:44.393Z,13.24
2022-09-17T00:13:11.861Z,13.33
2022-09-17T00:15:43.535Z,13.26
2022-09-17T00:18:10.866Z,13.19
2022-09-17T00:20:42.885Z,13.14
2022-09-17T00:23:10.315Z,13.03
2022-09-17T00:25:45.549Z,12.86
2022-09-17T00:28:13.926Z,12.95
2022-09-17T00:30:41.938Z,12.89
2022-09-17T00:33:09.310Z,13.01
2022-09-17T00:35:35.758Z,13.03
2022-09-17T00:38:02.278Z,12.99
2022-09-17T00:40:28.910Z,13.13
2022-09-17T00:42:55.458Z,13.03
2022-09-17T00:45:22.887Z,12.92
2022-09-17T00:48:00.038Z,12.79
2022-09-17T00:50:32.347Z,12.82
2022-09-17T00:53:15.332Z,12.77
2022-09-17T00:55:48.599Z,12.71
2022-09-17T00:58:18.885Z,12.67
2022-09-17T01:00:47.377Z,12.76
2022-09-17T01:03:14.464Z,12.71
2022-09-17T01:06:05.720Z,12.64
2022-09-17T01:08:59.743Z,12.71
2022-09-17T01:12:09.351Z,12.77
2022-09-17T01:14:53.985Z,12.76
2022-09-17T01:17:42.897Z,12.72
2022-09-17T01:20:31.179Z,12.79
2022-09-17T01:23:02.854Z,12.92
2022-09-17T01:25:58.445Z,12.90
2022-09-17T01:28:24.811Z,12.89
2022-09-17T01:31:12.938Z,12.92
2022-09-17T01:33:52.687Z,12.84
2022-09-17T01:36:31.397Z,12.85
2022-09-17T01:39:03.708Z,12.83
2022-09-17T01:41:33.111Z,12.77
2022-09-17T01:44:07.512Z,12.72
2022-09-17T01:46:43.688Z,12.73
2022-09-17T01:49:12.776Z,12.73
2022-09-17T01:51:43.661Z,12.77
2022-09-17T01:54:27.915Z,12.79
2022-09-17T01:57:36.356Z,12.87
2022-09-17T02:00:08.574Z,12.86
2022-09-17T02:02:44.986Z,12.84
2022-09-17T02:05:18.474Z,12.67
2022-09-17T02:07:55.895Z,12.66
2022-09-17T02:10:27.347Z,12.68
2022-09-17T02:12:58.968Z,12.68
2022-09-17T02:15:31.933Z,12.64
2022-09-17T02:18:06.945Z,12.65
2022-09-17T02:20:42.502Z,12.70
2022-09-17T02:23:17.657Z,12.66
2022-09-17T02:26:00.653Z,12.56
2022-09-17T02:28:50.030Z,12.49
2022-09-17T02:31:16.829Z,12.61
2022-09-17T02:33:47.501Z,12.65
2022-09-17T02:36:14.189Z,12.54
2022-09-17T02:38:43.736Z,12.52
2022-09-17T02:41:18.413Z,12.58
2022-09-17T02:43:53.298Z,12.48
2022-09-17T02:46:39.916Z,12.52
2022-09-17T02:49:39.979Z,12.49
2022-09-17T02:52:24.942Z,12.50
2022-09-17T02:55:12.102Z,12.44
2022-09-17T02:57:46.736Z,12.39
2022-09-17T03:00:21.770Z,12.44
2022-09-17T03:03:00.247Z,12.61
2022-09-17T03:05:29.162Z,12.63
2022-09-17T03:07:57.177Z,12.68
2022-09-17T03:10:23.721Z,12.56
2022-09-17T03:12:51.524Z,12.55
2022-09-17T03:15:17.960Z,12.52
2022-09-17T03:17:44.423Z,12.57
2022-09-17T03:20:10.893Z,12.56
2022-09-17T03:22:37.401Z,12.48
2022-09-17T03:25:04.213Z,12.31
2022-09-17T03:27:30.603Z,12.37
2022-09-17T03:29:57.029Z,12.28
2022-09-17T03:32:23.507Z,12.32
2022-09-17T03:34:49.937Z,12.45
2022-09-17T03:37:16.718Z,12.44
2022-09-17T03:39:43.176Z,12.37
2022-09-17T03:42:09.605Z,12.30
2022-09-17T03:44:36.097Z,12.32
2022-09-17T03:47:02.489Z,12.31
2022-09-17T03:49:28.969Z,12.21
2022-09-17T03:51:55.487Z,12.21
2022-09-17T03:54:22.155Z,12.23
2022-09-17T03:56:48.636Z,12.27
2022-09-17T03:59:15.211Z,12.09
2022-09-17T04:01:41.823Z,12.13
2022-09-17T04:04:08.348Z,12.14
2022-09-17T04:06:34.961Z,12.20
2022-09-17T04:09:03.759Z,12.10
2022-09-17T04:11:30.237Z,12.00
2022-09-17T04:13:56.851Z,11.88
2022-09-17T04:16:23.591Z,11.91
2022-09-17T04:18:50.160Z,11.97
2022-09-17T04:21:16.614Z,11.87
2022-09-17T04:23:43.036Z,11.72
2022-09-17T04:26:09.458Z,11.77
2022-09-17T04:28:35.909Z,11.76
2022-09-17T04:31:02.392Z,11.66
2022-09-17T04:33:28.837Z,11.61
2022-09-17T04:35:55.330Z,11.62
2022-09-17T04:38:22.164Z,11.63
2022-09-17T04:40:48.858Z,11.76
2022-09-17T04:43:15.459Z,11.78
2022-09-17T04:45:41.905Z,11.76
2022-09-17T04:48:08.857Z,11.73
2022-09-17T04:50:35.321Z,11.87
2022-09-17T04:53:01.764Z,11.97
2022-09-17T04:55:28.234Z,12.01
2022-09-17T04:57:54.747Z,12.05
2022-09-17T05:00:23.316Z,12.11
2022-09-17T05:02:52.256Z,12.15
2022-09-17T05:05:19.565Z,12.15
2022-09-17T05:07:46.133Z,11.99
2022-09-17T05:10:14.621Z,12.17
2022-09-17T05:12:41.117Z,12.05
2022-09-17T05:15:08.127Z,11.99
2022-09-17T05:17:34.631Z,12.05
2022-09-17T05:20:01.883Z,11.98
2022-09-17T05:22:28.286Z,12.03
2022-09-17T05:24:54.714Z,12.02
2022-09-17T05:27:21.159Z,11.95
2022-09-17T05:29:47.597Z,11.88
2022-09-17T05:32:14.060Z,12.04
2022-09-17T05:34:41.473Z,12.00
2022-09-17T05:37:11.192Z,12.07
2022-09-17T05:39:37.663Z,12.03
2022-09-17T05:42:04.194Z,11.92
2022-09-17T05:44:30.631Z,11.83
2022-09-17T05:46:57.136Z,11.87
2022-09-17T05:49:23.627Z,11.80
2022-09-17T05:51:51.592Z,12.02
2022-09-17T05:54:18.069Z,12.04
2022-09-17T05:56:44.474Z,12.19
2022-09-17T05:59:10.898Z,12.12
2022-09-17T06:01:37.327Z,12.22
2022-09-17T06:04:04.569Z,12.25
2022-09-17T06:06:31.041Z,12.22
2022-09-17T06:09:00.991Z,12.23
2022-09-17T06:11:28.574Z,12.23
2022-09-17T06:13:55.719Z,12.21
2022-09-17T06:16:24.405Z,12.36
2022-09-17T06:18:56.922Z,12.31
2022-09-17T06:21:23.650Z,12.42
2022-09-17T06:23:50.654Z,12.56
2022-09-17T06:26:18.105Z,12.55
2022-09-17T06:28:45.236Z,12.31
2022-09-17T06:31:13.578Z,12.48
2022-09-17T06:33:40.749Z,12.43
2022-09-17T06:36:13.759Z,12.25
2022-09-17T06:38:41.436Z,12.11
2022-09-17T06:41:08.198Z,12.28
2022-09-17T06:43:35.367Z,12.24
2022-09-17T06:46:05.971Z,12.19
2022-09-17T06:48:34.588Z,12.09
2022-09-17T06:51:10.341Z,11.97
2022-09-17T06:53:40.097Z,12.05
2022-09-17T06:56:09.661Z,12.09
2022-09-17T06:58:37.352Z,12.01
2022-09-17T07:01:05.512Z,12.03
2022-09-17T07:03:32.879Z,11.91
2022-09-17T07:05:59.302Z,12.12
2022-09-17T07:08:28.663Z,12.37
2022-09-17T07:10:56.572Z,12.57
2022-09-17T07:13:23.611Z,12.84
2022-09-17T07:16:09.418Z,13.26
2022-09-17T07:18:36.969Z,13.46
2022-09-17T07:21:05.870Z,13.82
2022-09-17T07:23:34.742Z,13.71
2022-09-17T07:26:03.966Z,14.05
2022-09-17T07:28:30.539Z,14.92
2022-09-17T07:30:57.251Z,16.04
2022-09-17T07:33:26.281Z,16.66
2022-09-17T07:36:00.928Z,15.59
2022-09-17T07:38:28.922Z,15.60
2022-09-17T07:41:00.433Z,15.87
2022-09-17T07:43:28.682Z,15.67
2022-09-17T07:45:57.981Z,15.89
2022-09-17T07:48:25.763Z,15.92
2022-09-17T07:50:52.574Z,16.09
2022-09-17T07:53:19.344Z,16.86
2022-09-17T07:55:57.217Z,17.24
2022-09-17T07:58:28.717Z,17.96
2022-09-17T08:01:10.633Z,18.77
2022-09-17T08:03:39.585Z,19.04
2022-09-17T08:06:08.894Z,19.41
2022-09-17T08:08:36.700Z,19.16
2022-09-17T08:11:11.330Z,19.74
2022-09-17T08:13:38.519Z,19.67
2022-09-17T08:16:08.727Z,20.22
2022-09-17T08:18:35.836Z,20.89
2022-09-17T08:21:04.890Z,21.76
2022-09-17T08:23:33.948Z,21.56
2022-09-17T08:26:00.570Z,20.39
2022-09-17T08:28:29.687Z,19.61
2022-09-17T08:31:01.005Z,19.81
2022-09-17T08:33:31.169Z,18.65
2022-09-17T08:35:59.594Z,18.08
2022-09-17T08:38:37.207Z,18.60
2022-09-17T08:41:10.463Z,19.86
2022-09-17T08:43:58.672Z,20.89
2022-09-17T08:46:26.390Z,21.32
2022-09-17T08:48:58.976Z,20.91
2022-09-17T08:51:54.340Z,19.29
2022-09-17T08:54:38.959Z,19.96
2022-09-17T08:57:25.164Z,18.98
2022-09-17T09:00:03.329Z,18.13
2022-09-17T09:02:39.615Z,18.68
2022-09-17T09:05:22.746Z,20.54
2022-09-17T09:08:02.009Z,19.49
2022-09-17T09:10:37.940Z,18.38
2022-09-17T09:13:04.713Z,17.59
2022-09-17T09:16:06.241Z,17.05
2022-09-17T09:18:38.856Z,17.29
2022-09-17T09:21:27.608Z,17.89
2022-09-17T09:23:56.794Z,17.07
2022-09-17T09:26:46.971Z,16.61
2022-09-17T09:29:28.825Z,16.42
2022-09-17T09:32:03.145Z,16.78
2022-09-17T09:34:30.097Z,17.26
2022-09-17T09:37:11.999Z,17.27
2022-09-17T09:39:45.727Z,16.96
2022-09-17T09:42:33.526Z,16.79
2022-09-17T09:45:05.236Z,16.31
2022-09-17T09:48:00.386Z,16.34
2022-09-17T09:51:10.618Z,16.54
2022-09-17T09:54:01.819Z,16.35
2022-09-17T09:56:51.214Z,16.31
2022-09-17T09:59:19.457Z,16.05
2022-09-17T10:01:46.418Z,16.04
2022-09-17T10:04:23.710Z,16.19
2022-09-17T10:06:53.388Z,15.72
2022-09-17T10:09:22.295Z,15.38
2022-09-17T10:12:15.253Z,15.12
2022-09-17T10:14:43.398Z,15.15
2022-09-17T10:17:20.791Z,15.53
2022-09-17T10:20:02.238Z,15.89
2022-09-17T10:22:40.180Z,16.62
2022-09-17T10:25:32.329Z,16.98
2022-09-17T10:28:02.023Z,16.25
2022-09-17T10:30:28.590Z,16.68
2022-09-17T10:33:19.650Z,17.79
2022-09-17T10:36:14.682Z,17.14
2022-09-17T10:38:43.213Z,17.23
2022-09-17T10:41:09.614Z,17.34
2022-09-17T10:43:36.272Z,17.45
2022-09-17T10:46:03.462Z,17.68
2022-09-17T10:48:39.915Z,16.99
2022-09-17T10:51:08.875Z,17.04
2022-09-17T10:53:59.005Z,17.05
2022-09-17T10:56:36.331Z,18.73
2022-09-17T10:59:25.985Z,18.51
2022-09-17T11:02:10.630Z,17.36
2022-09-17T11:05:02.677Z,16.87
2022-09-17T11:07:47.864Z,16.77
2022-09-17T11:10:25.052Z,16.53
2022-09-17T11:13:12.818Z,16.15
2022-09-17T11:16:35.521Z,16.49
2022-09-17T11:19:21.171Z,16.51
2022-09-17T11:22:05.603Z,16.06
2022-09-17T11:24:56.987Z,17.13
2022-09-17T11:27:28.146Z,18.10
2022-09-17T11:30:08.068Z,18.11
2022-09-17T11:33:00.740Z,19.15
2022-09-17T11:35:49.513Z,20.18
2022-09-17T11:38:49.170Z,19.08
2022-09-17T11:41:33.197Z,18.07
2022-09-17T11:44:28.374Z,17.55
2022-09-17T11:47:02.601Z,17.45
2022-09-17T11:50:03.070Z,18.62
2022-09-17T11:52:34.946Z,18.65
2022-09-17T11:55:21.331Z,20.00
2022-09-17T11:57:51.646Z,21.24
2022-09-17T12:00:24.609Z,20.39
2022-09-17T12:03:00.373Z,19.53
2022-09-17T12:05:40.310Z,19.33
2022-09-17T12:08:29.164Z,18.95
2022-09-17T12:11:13.109Z,18.41
2022-09-17T12:13:46.764Z,18.22
2022-09-17T12:16:21.999Z,17.79
2022-09-17T12:18:55.206Z,17.95
2022-09-17T12:21:30.508Z,17.76
2022-09-17T12:23:56.915Z,17.24
2022-09-17T12:26:49.210Z,17.59
2022-09-17T12:29:34.424Z,17.46
2022-09-17T12:32:21.097Z,17.15
2022-09-17T12:34:53.576Z,16.93
2022-09-17T12:37:47.797Z,16.78
2022-09-17T12:40:26.445Z,18.15
2022-09-17T12:42:58.442Z,18.73
2022-09-17T12:45:50.607Z,19.57
2022-09-17T12:48:24.799Z,18.49
2022-09-17T12:51:09.858Z,18.79
2022-09-17T12:53:40.862Z,18.01
2022-09-17T12:56:13.160Z,17.55
2022-09-17T12:59:08.956Z,17.07
2022-09-17T13:01:58.608Z,17.02
2022-09-17T13:05:00.648Z,16.99
2022-09-17T13:07:51.315Z,17.17
2022-09-17T13:10:39.022Z,16.90
2022-09-17T13:13:14.875Z,16.66
2022-09-17T13:15:53.614Z,16.17
2022-09-17T13:18:31.870Z,16.25
2022-09-17T13:21:14.119Z,16.22
2022-09-17T13:23:44.676Z,16.66
2022-09-17T13:26:14.769Z,17.37
2022-09-17T13:28:47.479Z,17.08
2022-09-17T13:31:20.966Z,17.69
2022-09-17T13:33:53.625Z,18.58
2022-09-17T13:36:56.822Z,18.06
2022-09-17T13:39:50.673Z,18.01
2022-09-17T13:42:30.115Z,18.04
2022-09-17T13:45:13.205Z,18.18
2022-09-17T13:47:51.076Z,18.17
2022-09-17T13:50:28.361Z,17.62
2022-09-17T13:52:58.012Z,17.31
2022-09-17T13:55:35.025Z,16.95
2022-09-17T13:58:09.521Z,16.93
2022-09-17T14:00:58.930Z,16.67
2022-09-17T14:03:28.540Z,16.62
2022-09-17T14:05:55.714Z,16.95
2022-09-17T14:08:31.061Z,16.87
2022-09-17T14:11:00.476Z,16.74
2022-09-17T14:13:35.745Z,16.85
2022-09-17T14:16:02.719Z,17.03
2022-09-17T14:18:29.184Z,16.84
2022-09-17T14:21:05.826Z,17.28
2022-09-17T14:23:35.216Z,17.39
2022-09-17T14:26:08.165Z,17.21
2022-09-17T14:29:02.411Z,17.30
2022-09-17T14:31:35.817Z,17.18
2022-09-17T14:34:06.831Z,16.76
2022-09-17T14:36:38.351Z,16.64
2022-09-17T14:39:13.134Z,16.55
2022-09-17T14:41:41.954Z,16.71
2022-09-17T14:44:17.473Z,16.72
2022-09-17T14:46:52.847Z,16.87
2022-09-17T14:49:26.285Z,16.80
2022-09-17T14:51:57.595Z,16.74
2022-09-17T14:54:33.623Z,16.40
2022-09-17T14:57:17.327Z,16.31
2022-09-17T14:59:49.436Z,16.15
2022-09-17T15:02:28.934Z,16.15
2022-09-17T15:04:56.122Z,16.15
2022-09-17T15:07:23.751Z,16.44
2022-09-17T15:09:55.373Z,16.48
2022-09-17T15:12:29.774Z,16.48
2022-09-17T15:14:58.831Z,16.39
2022-09-17T15:17:25.501Z,16.12
2022-09-17T15:19:56.687Z,16.16
2022-09-17T15:22:27.816Z,16.32
2022-09-17T15:24:59.977Z,16.35
2022-09-17T15:27:31.717Z,16.08
2022-09-17T15:30:03.345Z,16.00
2022-09-17T15:32:30.343Z,15.71
2022-09-17T15:35:18.154Z,15.77
2022-09-17T15:38:05.727Z,15.72
2022-09-17T15:40:41.239Z,15.45
2022-09-17T15:43:28.153Z,15.30
2022-09-17T15:45:55.240Z,15.40
2022-09-17T15:48:27.838Z,15.22
2022-09-17T15:50:56.794Z,15.17
2022-09-17T15:53:25.022Z,15.14
2022-09-17T15:56:05.291Z,15.04
2022-09-17T15:58:37.771Z,14.90
2022-09-17T16:01:16.625Z,14.86
2022-09-17T16:03:46.479Z,14.72
2022-09-17T16:06:18.747Z,14.86
2022-09-17T16:08:53.538Z,14.84
2022-09-17T16:11:25.427Z,14.72
2022-09-17T16:13:54.132Z,14.80
2022-09-17T16:16:23.060Z,14.88
2022-09-17T16:18:50.670Z,14.92
2022-09-17T16:21:19.213Z,14.96
2022-09-17T16:23:46.730Z,14.91
2022-09-17T16:26:23.447Z,14.95
2022-09-17T16:28:53.747Z,15.07
2022-09-17T16:31:20.876Z,15.02
2022-09-17T16:33:47.425Z,14.91
2022-09-17T16:36:16.768Z,14.85
2022-09-17T16:38:43.320Z,14.75
2022-09-17T16:41:10.067Z,14.43
2022-09-17T16:43:38.403Z,14.43
2022-09-17T16:46:07.343Z,14.48
2022-09-17T16:48:34.333Z,14.50
2022-09-17T16:51:06.281Z,14.38
2022-09-17T16:53:34.586Z,14.26
2022-09-17T16:56:01.272Z,14.23
2022-09-17T16:58:27.685Z,14.46
2022-09-17T17:00:54.443Z,14.45
2022-09-17T17:03:20.962Z,14.45
2022-09-17T17:05:47.540Z,14.44
2022-09-17T17:08:14.721Z,14.43
2022-09-17T17:10:41.532Z,14.42
2022-09-17T17:13:07.941Z,14.40
2022-09-17T17:15:34.582Z,14.33
2022-09-17T17:18:00.992Z,14.45
2022-09-17T17:20:27.449Z,14.46
2022-09-17T17:22:55.220Z,14.48
2022-09-17T17:25:23.627Z,14.33
2022-09-17T17:27:50.339Z,14.15
2022-09-17T17:30:17.607Z,14.05
2022-09-17T17:32:48.694Z,14.14
2022-09-17T17:35:15.498Z,14.15
2022-09-17T17:37:42.113Z,14.01
2022-09-17T17:40:10.171Z,14.19
2022-09-17T17:42:39.391Z,14.13
2022-09-17T17:45:07.278Z,14.24
2022-09-17T17:47:34.256Z,14.33
2022-09-17T17:50:00.725Z,14.39
2022-09-17T17:52:27.947Z,14.41
2022-09-17T17:54:54.516Z,14.37
2022-09-17T17:57:21.058Z,14.39
2022-09-17T17:59:47.557Z,14.22
2022-09-17T18:02:14.157Z,14.23
2022-09-17T18:04:40.625Z,14.22
2022-09-17T18:07:07.747Z,13.90
2022-09-17T18:09:34.266Z,13.60
2022-09-17T18:12:00.715Z,13.82
2022-09-17T18:14:27.479Z,13.88
2022-09-17T18:16:54.383Z,13.97
2022-09-17T18:19:20.887Z,13.87
2022-09-17T18:21:47.364Z,13.82
2022-09-17T18:24:13.841Z,13.85
2022-09-17T18:26:40.338Z,13.76
2022-09-17T18:29:08.224Z,13.89
2022-09-17T18:31:36.039Z,14.01
2022-09-17T18:34:11.853Z,14.03
2022-09-17T18:36:39.619Z,14.04
2022-09-17T18:39:44.868Z,14.02
2022-09-17T18:41:54.794Z,14.02
2022-09-17T18:44:22.322Z,14.01
2022-09-17T18:46:50.183Z,14.06
2022-09-17T18:49:17.221Z,14.06
2022-09-17T18:51:43.736Z,14.03
2022-09-17T18:54:12.551Z,14.01
2022-09-17T18:56:40.243Z,14.01
2022-09-17T18:59:08.250Z,13.95
2022-09-17T19:01:35.608Z,13.97
2022-09-17T19:04:02.801Z,13.76
2022-09-17T19:06:30.441Z,13.70
2022-09-17T19:09:00.967Z,13.57
2022-09-17T19:11:27.888Z,13.45
2022-09-17T19:13:54.575Z,13.34
2022-09-17T19:16:21.112Z,13.21
2022-09-17T19:18:47.586Z,13.24
2022-09-17T19:21:16.630Z,13.27
2022-09-17T19:23:45.550Z,13.29
2022-09-17T19:26:16.248Z,13.35
2022-09-17T19:28:42.667Z,13.47
2022-09-17T19:31:12.538Z,13.38
2022-09-17T19:33:39.569Z,13.46
2022-09-17T19:36:10.462Z,13.45
2022-09-17T19:38:37.179Z,13.38
2022-09-17T19:41:10.585Z,13.39
2022-09-17T19:43:37.172Z,13.27
2022-09-17T19:46:10.208Z,13.35
2022-09-17T19:48:37.164Z,13.30
2022-09-17T19:51:05.213Z,13.30
2022-09-17T19:53:33.013Z,13.30
2022-09-17T19:55:59.826Z,13.32
2022-09-17T19:58:26.289Z,13.35
2022-09-17T20:00:59.794Z,13.40
2022-09-17T20:03:26.522Z,13.23
2022-09-17T20:06:14.061Z,13.26
2022-09-17T20:09:06.647Z,13.20
2022-09-17T20:11:33.094Z,13.31
2022-09-17T20:14:06.641Z,13.20
2022-09-17T20:16:36.133Z,13.25
2022-09-17T20:19:02.933Z,13.26
2022-09-17T20:21:30.142Z,13.23
2022-09-17T20:23:57.191Z,13.18
2022-09-17T20:26:24.103Z,13.28
2022-09-17T20:28:51.889Z,13.22
2022-09-17T20:31:29.545Z,13.24
2022-09-17T20:33:58.664Z,13.22
2022-09-17T20:36:28.135Z,13.19
2022-09-17T20:39:11.551Z,13.27
2022-09-17T20:41:40.425Z,13.29
2022-09-17T20:44:07.808Z,13.31
2022-09-17T20:46:34.648Z,13.27
2022-09-17T20:49:01.165Z,13.27
2022-09-17T20:51:29.740Z,13.35
2022-09-17T20:54:01.062Z,13.24
2022-09-17T20:56:30.390Z,13.19
2022-09-17T20:59:03.962Z,13.24
2022-09-17T21:01:32.867Z,13.24
2022-09-17T21:04:01.062Z,13.27
2022-09-17T21:06:32.482Z,13.13
2022-09-17T21:09:02.398Z,13.18
2022-09-17T21:11:31.407Z,13.23
2022-09-17T21:13:59.756Z,13.09
2022-09-17T21:16:26.543Z,13.22
2022-09-17T21:19:01.547Z,13.17
2022-09-17T21:21:28.361Z,13.14
2022-09-17T21:23:54.894Z,13.08
2022-09-17T21:26:23.474Z,13.04
2022-09-17T21:28:51.721Z,13.09
2022-09-17T21:31:20.571Z,13.04
2022-09-17T21:33:48.284Z,13.07
2022-09-17T21:36:18.558Z,13.24
2022-09-17T21:38:45.577Z,13.13
2022-09-17T21:41:14.927Z,13.12
2022-09-17T21:43:43.124Z,13.15
2022-09-17T21:46:11.911Z,12.99
2022-09-17T21:48:46.098Z,13.04
2022-09-17T21:51:15.085Z,13.01
2022-09-17T21:53:41.944Z,12.90
2022-09-17T21:56:14.167Z,12.89
2022-09-17T21:58:41.718Z,12.99
2022-09-17T22:01:10.869Z,13.02
2022-09-17T22:03:37.908Z,13.01
2022-09-17T22:06:06.675Z,13.04
2022-09-17T22:08:34.242Z,13.01
2022-09-17T22:11:07.444Z,12.92
2022-09-17T22:13:34.113Z,12.94
2022-09-17T22:16:03.342Z,13.00
2022-09-17T22:18:30.197Z,13.01
2022-09-17T22:20:56.908Z,13.08
2022-09-17T22:23:23.827Z,13.08
2022-09-17T22:26:00.588Z,12.92
2022-09-17T22:28:27.605Z,12.86
2022-09-17T22:30:54.079Z,12.78
2022-09-17T22:33:20.675Z,12.79
2022-09-17T22:35:47.163Z,12.83
2022-09-17T22:38:13.617Z,12.76
2022-09-17T22:40:40.083Z,12.79
2022-09-17T22:43:06.677Z,12.75
2022-09-17T22:45:33.109Z,12.86
2022-09-17T22:47:59.501Z,12.83
2022-09-17T22:50:25.932Z,12.62
2022-09-17T22:52:52.378Z,12.72
2022-09-17T22:55:18.799Z,12.66
2022-09-17T22:57:45.219Z,12.57
2022-09-17T23:00:12.361Z,12.64
2022-09-17T23:02:39.149Z,12.64
2022-09-17T23:05:05.721Z,12.50
2022-09-17T23:07:32.137Z,12.22
2022-09-17T23:09:58.624Z,12.43
2022-09-17T23:12:25.029Z,12.31
2022-09-17T23:14:51.479Z,12.39
2022-09-17T23:17:17.935Z,12.39
2022-09-17T23:19:44.382Z,12.25
2022-09-17T23:22:10.883Z,12.29
2022-09-17T23:24:37.799Z,12.29
2022-09-17T23:27:04.424Z,12.23
2022-09-17T23:29:30.927Z,12.05
2022-09-17T23:31:57.345Z,12.05
2022-09-17T23:34:23.768Z,12.07
2022-09-17T23:36:50.278Z,11.91
2022-09-17T23:39:16.741Z,11.88
2022-09-17T23:41:44.849Z,11.95
2022-09-17T23:44:15.627Z,12.07
2022-09-17T23:46:43.872Z,12.19
2022-09-17T23:49:10.958Z,12.22
2022-09-17T23:51:37.461Z,12.11
2022-09-17T23:54:07.494Z,12.04
2022-09-17T23:56:35.140Z,12.03
2022-09-17T23:59:02.133Z,12.01
